createdAt,value
2019-05-15T00:00:43.250Z,8.40
2019-05-15T00:03:14.743Z,8.30
2019-05-15T00:05:44.350Z,8.30
2019-05-15T00:08:13.673Z,8.30
2019-05-15T00:10:43.462Z,8.30
2019-05-15T00:13:14.511Z,8.30
2019-05-15T00:15:44.672Z,8.30
2019-05-15T00:18:15.338Z,8.20
2019-05-15T00:20:45.391Z,8.20
2019-05-15T00:23:15.075Z,8.20
2019-05-15T00:25:45.137Z,8.20
2019-05-15T00:28:18.399Z,8.10
2019-05-15T00:30:48.189Z,8.10
2019-05-15T00:33:19.346Z,8.10
2019-05-15T00:35:50.081Z,8.10
2019-05-15T00:38:20.197Z,8.10
2019-05-15T00:40:50.250Z,8.10
2019-05-15T00:43:21.439Z,8.00
2019-05-15T00:45:52.452Z,8.00
2019-05-15T00:48:22.371Z,8.00
2019-05-15T00:50:52.816Z,7.90
2019-05-15T00:53:22.382Z,7.90
2019-05-15T00:55:52.526Z,7.80
2019-05-15T00:58:22.664Z,7.80
2019-05-15T01:00:52.947Z,7.80
2019-05-15T01:03:23.226Z,7.80
2019-05-15T01:05:53.157Z,7.70
2019-05-15T01:08:23.935Z,7.70
2019-05-15T01:10:53.614Z,7.60
2019-05-15T01:13:23.715Z,7.60
2019-05-15T01:15:54.276Z,7.60
2019-05-15T01:18:24.357Z,7.50
2019-05-15T01:20:54.490Z,7.50
2019-05-15T01:23:24.155Z,7.40
2019-05-15T01:25:54.311Z,7.40
2019-05-15T01:28:24.003Z,7.30
2019-05-15T01:30:54.213Z,7.30
2019-05-15T01:33:23.701Z,7.30
2019-05-15T01:35:53.628Z,7.20
2019-05-15T01:38:23.370Z,7.20
2019-05-15T01:40:53.176Z,7.10
2019-05-15T01:43:23.255Z,7.20
2019-05-15T01:45:53.028Z,7.10
2019-05-15T01:48:22.472Z,7.10
2019-05-15T01:50:52.852Z,7.00
2019-05-15T01:53:22.698Z,7.10
2019-05-15T01:55:53.178Z,7.10
2019-05-15T01:58:23.165Z,7.00
2019-05-15T02:00:52.866Z,7.00
2019-05-15T02:03:23.155Z,7.00
2019-05-15T02:05:54.186Z,6.90
2019-05-15T02:08:24.048Z,6.90
2019-05-15T02:10:54.705Z,6.90
2019-05-15T02:13:25.244Z,6.80
2019-05-15T02:15:56.091Z,6.80
2019-05-15T02:18:28.551Z,6.80
2019-05-15T02:20:58.853Z,6.80
2019-05-15T02:23:28.647Z,6.70
2019-05-15T02:25:59.247Z,6.70
2019-05-15T02:28:30.258Z,6.70
2019-05-15T02:33:30.151Z,6.60
2019-05-15T02:36:00.681Z,6.60
2019-05-15T02:38:30.787Z,6.50
2019-05-15T02:41:00.605Z,6.60
2019-05-15T02:43:30.559Z,6.50
2019-05-15T02:46:00.885Z,6.50
2019-05-15T02:48:30.847Z,6.50
2019-05-15T02:51:00.609Z,6.40
2019-05-15T02:53:30.506Z,6.40
2019-05-15T02:58:30.119Z,6.30
2019-05-15T03:01:00.058Z,6.30
2019-05-15T03:03:30.265Z,6.20
2019-05-15T03:06:03.061Z,6.20
2019-05-15T03:08:33.081Z,6.20
2019-05-15T03:11:02.668Z,6.20
2019-05-15T03:13:32.550Z,6.20
2019-05-15T03:16:02.488Z,6.10
2019-05-15T03:18:32.523Z,6.10
2019-05-15T03:21:03.163Z,6.10
2019-05-15T03:23:33.334Z,6.00
2019-05-15T03:26:04.466Z,6.00
2019-05-15T03:28:34.637Z,5.90
2019-05-15T03:31:25.757Z,5.90
2019-05-15T03:33:43.933Z,5.80
2019-05-15T03:36:13.578Z,5.90
2019-05-15T03:38:40.977Z,5.80
2019-05-15T03:41:10.764Z,5.80
2019-05-15T03:43:41.497Z,5.80
2019-05-15T03:46:11.598Z,5.80
2019-05-15T03:48:42.561Z,5.80
2019-05-15T03:51:12.751Z,5.80
2019-05-15T03:53:43.169Z,5.80
2019-05-15T03:56:14.414Z,5.80
2019-05-15T03:58:49.037Z,5.70
2019-05-15T04:01:29.922Z,5.70
2019-05-15T04:03:49.740Z,5.70
2019-05-15T04:06:20.177Z,5.70
2019-05-15T04:08:50.796Z,5.70
2019-05-15T04:11:21.158Z,8.00
2019-05-15T04:13:51.046Z,5.70
2019-05-15T04:16:21.104Z,5.70
2019-05-15T04:18:50.801Z,5.70
2019-05-15T04:21:20.563Z,5.60
2019-05-15T04:23:51.393Z,5.60
2019-05-15T04:26:22.999Z,5.50
2019-05-15T04:28:55.558Z,5.50
2019-05-15T04:31:25.458Z,5.50
2019-05-15T04:33:55.453Z,5.50
2019-05-15T04:36:29.414Z,5.50
2019-05-15T04:38:58.779Z,5.50
2019-05-15T04:41:30.166Z,5.50
2019-05-15T04:44:00.106Z,5.50
2019-05-15T04:46:30.133Z,5.50
2019-05-15T04:49:00.007Z,5.50
2019-05-15T04:54:00.670Z,5.40
2019-05-15T04:59:00.301Z,5.50
2019-05-15T05:01:29.632Z,5.50
2019-05-15T05:03:59.759Z,5.50
2019-05-15T05:06:30.604Z,5.50
2019-05-15T05:09:00.618Z,5.60
2019-05-15T05:11:30.956Z,5.60
2019-05-15T05:14:01.030Z,5.70
2019-05-15T05:16:30.724Z,5.70
2019-05-15T05:19:02.034Z,5.70
2019-05-15T05:21:32.422Z,5.80
2019-05-15T05:24:02.157Z,5.80
2019-05-15T05:26:32.295Z,5.80
2019-05-15T05:29:01.904Z,5.80
2019-05-15T05:31:31.184Z,5.90
2019-05-15T05:34:01.817Z,5.90
2019-05-15T05:36:31.947Z,5.90
2019-05-15T05:39:02.101Z,6.00
2019-05-15T05:41:31.456Z,6.00
2019-05-15T05:44:02.134Z,6.00
2019-05-15T05:46:31.948Z,6.00
2019-05-15T05:49:01.301Z,6.10
2019-05-15T05:53:59.825Z,6.10
2019-05-15T05:56:29.140Z,6.10
2019-05-15T05:58:58.858Z,6.20
2019-05-15T06:01:28.327Z,6.30
2019-05-15T06:03:58.840Z,6.30
2019-05-15T06:06:29.246Z,6.40
2019-05-15T06:08:59.096Z,6.40
2019-05-15T06:11:28.563Z,6.50
2019-05-15T06:13:58.529Z,6.80
2019-05-15T06:16:48.305Z,6.80
2019-05-15T06:19:32.926Z,6.90
2019-05-15T06:22:02.241Z,6.90
2019-05-15T06:24:31.934Z,6.90
2019-05-15T06:27:01.417Z,7.00
2019-05-15T06:29:30.551Z,7.00
2019-05-15T06:32:00.024Z,7.10
2019-05-15T06:34:29.135Z,7.10
2019-05-15T06:36:58.866Z,7.20
2019-05-15T06:39:28.688Z,7.20
2019-05-15T06:41:58.794Z,7.30
2019-05-15T06:44:29.134Z,7.20
2019-05-15T06:46:59.072Z,7.30
2019-05-15T06:49:28.649Z,7.50
2019-05-15T06:51:58.222Z,7.50
2019-05-15T06:54:28.422Z,7.70
2019-05-15T06:56:58.435Z,7.70
2019-05-15T06:59:28.781Z,7.80
2019-05-15T07:01:59.385Z,7.90
2019-05-15T07:04:28.928Z,8.00
2019-05-15T07:06:58.500Z,8.00
2019-05-15T07:09:28.788Z,8.10
2019-05-15T07:11:59.050Z,8.20
2019-05-15T07:14:28.873Z,8.20
2019-05-15T07:16:59.228Z,8.40
2019-05-15T07:19:28.805Z,8.40
2019-05-15T07:21:58.234Z,8.40
2019-05-15T07:26:59.100Z,8.50
2019-05-15T07:29:29.226Z,8.50
2019-05-15T07:31:58.713Z,8.40
2019-05-15T07:34:28.486Z,8.50
2019-05-15T07:36:59.153Z,8.60
2019-05-15T07:39:29.162Z,8.60
2019-05-15T07:41:58.460Z,8.80
2019-05-15T07:44:28.296Z,8.80
2019-05-15T07:46:58.361Z,8.80
2019-05-15T07:49:28.879Z,8.80
2019-05-15T07:51:59.398Z,8.80
2019-05-15T07:54:29.556Z,9.00
2019-05-15T07:56:59.203Z,9.00
2019-05-15T07:59:28.651Z,9.10
2019-05-15T08:01:58.376Z,9.10
2019-05-15T08:04:30.524Z,9.10
2019-05-15T08:06:59.633Z,9.20
2019-05-15T08:09:29.771Z,9.10
2019-05-15T08:12:03.054Z,9.20
2019-05-15T08:14:30.889Z,9.20
2019-05-15T08:17:01.767Z,9.10
2019-05-15T08:19:31.304Z,9.20
2019-05-15T08:22:01.032Z,9.30
2019-05-15T08:24:30.913Z,9.30
2019-05-15T08:27:00.392Z,9.40
2019-05-15T08:29:30.054Z,9.40
2019-05-15T08:31:59.570Z,9.20
2019-05-15T08:34:28.887Z,9.20
2019-05-15T08:36:59.053Z,9.30
2019-05-15T08:39:28.737Z,9.40
2019-05-15T08:41:58.603Z,9.40
2019-05-15T08:44:29.440Z,9.50
2019-05-15T08:46:59.235Z,9.50
2019-05-15T08:49:28.862Z,9.50
2019-05-15T08:51:58.508Z,9.60
2019-05-15T08:54:29.016Z,9.60
2019-05-15T08:56:59.166Z,9.60
2019-05-15T08:59:29.452Z,9.60
2019-05-15T09:01:58.895Z,9.60
2019-05-15T09:04:34.414Z,9.60
2019-05-15T09:07:01.259Z,9.70
2019-05-15T09:09:31.455Z,9.70
2019-05-15T09:12:01.496Z,9.80
2019-05-15T09:14:31.771Z,9.90
2019-05-15T09:17:01.439Z,10.00
2019-05-15T09:19:30.925Z,9.90
2019-05-15T09:22:00.436Z,9.90
2019-05-15T09:24:29.993Z,10.00
2019-05-15T09:26:59.706Z,10.10
2019-05-15T09:29:29.263Z,10.00
2019-05-15T09:31:59.068Z,10.10
2019-05-15T09:34:46.672Z,10.20
2019-05-15T09:37:02.584Z,10.20
2019-05-15T09:39:32.270Z,10.30
2019-05-15T09:42:01.789Z,10.40
2019-05-15T09:44:31.297Z,10.40
2019-05-15T09:47:00.976Z,10.40
2019-05-15T09:49:31.329Z,10.60
2019-05-15T09:52:01.153Z,10.60
2019-05-15T09:57:02.911Z,10.60
2019-05-15T09:59:32.297Z,10.70
2019-05-15T10:02:01.663Z,10.80
2019-05-15T10:04:31.150Z,10.80
2019-05-15T10:07:01.009Z,10.70
2019-05-15T10:09:30.643Z,10.80
2019-05-15T10:12:00.275Z,10.80
2019-05-15T10:14:29.954Z,10.80
2019-05-15T10:16:59.502Z,10.90
2019-05-15T10:19:29.320Z,10.90
2019-05-15T10:21:59.645Z,10.90
2019-05-15T10:24:29.424Z,11.00
2019-05-15T10:26:58.818Z,11.20
2019-05-15T10:29:28.438Z,11.20
2019-05-15T10:31:58.317Z,11.30
2019-05-15T10:34:28.889Z,11.30
2019-05-15T10:36:59.041Z,11.40
2019-05-15T10:39:28.889Z,11.50
2019-05-15T10:42:00.111Z,11.50
2019-05-15T10:44:30.464Z,11.60
2019-05-15T10:47:00.152Z,11.70
2019-05-15T10:49:29.608Z,11.70
2019-05-15T10:51:59.412Z,11.70
2019-05-15T10:54:29.418Z,11.80
2019-05-15T10:57:00.879Z,11.70
2019-05-15T10:59:30.891Z,11.70
2019-05-15T11:02:00.647Z,11.70
2019-05-15T11:04:30.023Z,11.90
2019-05-15T11:06:59.503Z,11.90
2019-05-15T11:09:29.283Z,12.10
2019-05-15T11:11:58.705Z,12.00
2019-05-15T11:14:28.616Z,12.00
2019-05-15T11:16:58.991Z,12.10
2019-05-15T11:19:35.780Z,12.10
2019-05-15T11:21:59.732Z,12.00
2019-05-15T11:24:32.232Z,12.00
2019-05-15T11:27:00.146Z,12.10
2019-05-15T11:29:29.556Z,12.10
2019-05-15T11:31:58.955Z,12.20
2019-05-15T11:34:29.131Z,12.40
2019-05-15T11:36:59.361Z,12.40
2019-05-15T11:39:29.077Z,12.50
2019-05-15T11:41:58.766Z,12.60
2019-05-15T11:44:28.373Z,12.70
2019-05-15T11:46:58.694Z,12.80
2019-05-15T11:49:29.053Z,12.80
2019-05-15T11:52:00.583Z,12.80
2019-05-15T11:56:59.814Z,12.80
2019-05-15T11:59:30.063Z,13.00
2019-05-15T12:01:59.791Z,13.00
2019-05-15T12:04:33.855Z,13.00
2019-05-15T12:07:02.632Z,13.10
2019-05-15T12:09:31.742Z,13.30
2019-05-15T12:12:01.344Z,13.30
2019-05-15T12:14:31.257Z,13.30
2019-05-15T12:17:10.357Z,13.00
2019-05-15T12:19:31.700Z,13.00
2019-05-15T12:22:00.984Z,13.00
2019-05-15T12:24:35.407Z,13.20
2019-05-15T12:27:13.870Z,13.20
2019-05-15T12:29:32.237Z,13.30
2019-05-15T12:32:21.969Z,13.20
2019-05-15T12:34:32.522Z,13.20
2019-05-15T12:37:01.897Z,13.20
2019-05-15T12:39:32.076Z,13.20
2019-05-15T12:59:44.643Z,13.60
2019-05-15T13:02:14.218Z,13.70
2019-05-15T13:04:43.722Z,13.80
2019-05-15T13:07:16.710Z,13.80
2019-05-15T13:09:45.117Z,13.80
2019-05-15T13:12:15.158Z,13.90
2019-05-15T13:14:48.370Z,13.90
2019-05-15T13:17:18.397Z,14.00
2019-05-15T13:19:48.636Z,14.00
2019-05-15T13:22:39.371Z,14.10
2019-05-15T13:25:09.437Z,14.20
2019-05-15T13:30:14.269Z,14.40
2019-05-15T13:32:44.076Z,14.40
2019-05-15T13:35:13.994Z,14.20
2019-05-15T13:37:43.630Z,14.20
2019-05-15T13:40:13.944Z,14.20
2019-05-15T13:42:43.486Z,14.10
2019-05-15T13:45:13.707Z,14.10
2019-05-15T13:47:43.028Z,14.10
2019-05-15T13:50:12.722Z,14.10
2019-05-15T14:40:08.470Z,17.50
2019-05-15T14:45:08.689Z,17.40
2019-05-15T14:50:10.087Z,17.70
2019-05-15T14:52:40.021Z,17.60
2019-05-15T14:55:09.765Z,17.60
2019-05-15T14:57:39.688Z,17.10
2019-05-15T15:00:10.434Z,16.80
2019-05-15T15:02:39.612Z,17.00
2019-05-15T15:07:38.814Z,17.20
2019-05-15T15:10:08.352Z,17.00
2019-05-15T15:12:39.648Z,17.00
2019-05-15T15:15:10.600Z,17.10
2019-05-15T15:20:08.684Z,16.40
2019-05-15T15:22:39.389Z,16.30
2019-05-15T15:25:09.800Z,16.30
2019-05-15T15:27:39.451Z,16.20
2019-05-15T15:30:09.742Z,16.10
2019-05-15T15:32:39.001Z,15.90
2019-05-15T15:35:09.264Z,15.80
2019-05-15T15:37:39.324Z,16.00
2019-05-15T15:40:08.836Z,15.90
2019-05-15T15:42:39.410Z,15.80
2019-05-15T15:45:09.980Z,15.60
2019-05-15T15:50:09.635Z,15.30
2019-05-15T15:52:39.279Z,15.20
2019-05-15T15:55:09.262Z,15.30
2019-05-15T15:57:39.603Z,15.40
2019-05-15T16:00:10.346Z,15.40
2019-05-15T16:07:43.545Z,15.30
2019-05-15T16:10:12.680Z,15.10
2019-05-15T16:12:41.844Z,15.00
2019-05-15T16:15:11.405Z,14.90
2019-05-15T16:17:40.687Z,14.90
2019-05-15T16:20:11.282Z,14.90
2019-05-15T16:25:09.936Z,15.10
2019-05-15T16:27:39.729Z,15.00
2019-05-15T16:30:09.586Z,14.90
2019-05-15T16:32:41.480Z,14.90
2019-05-15T16:35:09.753Z,14.60
2019-05-15T16:37:39.199Z,14.50
2019-05-15T16:40:08.874Z,14.30
2019-05-15T16:42:38.694Z,14.30
2019-05-15T16:45:09.299Z,14.30
2019-05-15T16:47:39.750Z,14.30
2019-05-15T16:50:10.044Z,14.30
2019-05-15T16:52:39.246Z,14.20
2019-05-15T16:55:09.814Z,14.20
2019-05-15T16:57:39.141Z,13.90
2019-05-15T17:00:10.039Z,13.80
2019-05-15T17:02:39.755Z,13.80
2019-05-15T17:05:10.354Z,13.80
2019-05-15T17:07:39.943Z,13.70
2019-05-15T17:15:08.621Z,13.80
2019-05-15T17:17:38.713Z,13.70
2019-05-15T17:20:10.162Z,13.70
2019-05-15T17:22:39.464Z,13.70
2019-05-15T17:25:09.483Z,13.70
2019-05-15T17:27:38.878Z,13.60
2019-05-15T17:30:09.483Z,13.60
2019-05-15T17:32:40.660Z,13.50
2019-05-15T17:35:10.247Z,13.50
2019-05-15T17:37:39.420Z,13.40
2019-05-15T17:40:09.745Z,13.40
2019-05-15T17:45:09.366Z,13.30
2019-05-15T17:47:40.595Z,13.20
2019-05-15T17:50:09.910Z,13.10
2019-05-15T17:55:08.901Z,13.00
2019-05-15T17:57:38.784Z,13.00
2019-05-15T18:00:12.445Z,12.90
2019-05-15T18:02:40.800Z,12.90
2019-05-15T18:05:10.342Z,12.90
2019-05-15T18:07:39.496Z,12.80
2019-05-15T18:10:09.012Z,12.80
2019-05-15T18:12:38.761Z,12.70
2019-05-15T18:15:09.384Z,12.70
2019-05-15T18:17:39.218Z,12.60
2019-05-15T18:20:10.558Z,12.60
2019-05-15T18:22:39.851Z,12.60
2019-05-15T18:25:09.381Z,12.50
2019-05-15T18:27:39.095Z,12.50
2019-05-15T18:32:39.317Z,12.50
2019-05-15T18:35:09.006Z,12.40
2019-05-15T18:37:39.442Z,12.40
2019-05-15T18:42:40.392Z,12.30
2019-05-15T18:45:10.209Z,12.30
2019-05-15T18:47:39.909Z,12.20
2019-05-15T18:50:12.901Z,12.20
2019-05-15T18:52:40.268Z,12.20
2019-05-15T18:55:09.446Z,12.10
2019-05-15T18:57:38.851Z,12.10
2019-05-15T19:00:09.258Z,12.10
2019-05-15T19:02:39.332Z,12.10
2019-05-15T19:05:08.540Z,12.10
2019-05-15T19:07:38.474Z,12.10
2019-05-15T19:10:08.473Z,12.00
2019-05-15T19:12:37.978Z,12.00
2019-05-15T19:15:09.274Z,11.90
2019-05-15T19:17:39.089Z,11.90
2019-05-15T19:20:09.237Z,11.90
2019-05-15T19:22:40.926Z,11.90
2019-05-15T19:25:09.672Z,11.80
2019-05-15T19:27:39.484Z,11.80
2019-05-15T19:30:09.379Z,11.80
2019-05-15T19:32:39.074Z,11.80
2019-05-15T19:35:09.292Z,11.80
2019-05-15T19:37:38.777Z,11.80
2019-05-15T19:40:08.822Z,11.80
2019-05-15T19:42:38.599Z,11.80
2019-05-15T19:45:08.932Z,11.80
2019-05-15T19:47:38.817Z,12.00
2019-05-15T19:50:08.827Z,11.70
2019-05-15T19:52:38.360Z,11.70
2019-05-15T19:55:09.053Z,11.70
2019-05-15T19:57:38.971Z,11.70
2019-05-15T20:00:08.781Z,11.70
2019-05-15T20:02:38.313Z,11.70
2019-05-15T20:05:09.103Z,11.70
2019-05-15T20:07:39.366Z,11.70
2019-05-15T20:10:10.400Z,11.70
2019-05-15T20:12:40.273Z,11.70
2019-05-15T20:15:10.037Z,11.70
2019-05-15T20:20:09.131Z,11.70
2019-05-15T20:22:40.219Z,11.70
2019-05-15T20:25:09.126Z,11.70
2019-05-15T20:27:39.043Z,11.60
2019-05-15T20:30:10.185Z,11.60
2019-05-15T20:35:09.004Z,11.60
2019-05-15T20:37:39.165Z,11.60
2019-05-15T20:40:10.298Z,11.60
2019-05-15T20:42:39.370Z,11.60
2019-05-15T20:45:12.435Z,11.60
2019-05-15T20:47:40.199Z,11.60
2019-05-15T20:50:09.735Z,11.60
2019-05-15T20:52:39.692Z,11.60
2019-05-15T20:55:10.763Z,11.50
2019-05-15T20:57:40.907Z,11.50
2019-05-15T21:00:12.848Z,11.50
2019-05-15T21:02:42.547Z,11.40
2019-05-15T21:05:11.898Z,11.40
2019-05-15T21:07:43.353Z,11.40
2019-05-15T21:10:11.924Z,11.40
2019-05-15T21:12:41.623Z,11.40
2019-05-15T21:15:11.132Z,11.40
2019-05-15T21:17:41.929Z,11.30
2019-05-15T21:20:11.260Z,11.30
2019-05-15T21:22:40.869Z,11.30
2019-05-15T21:25:10.722Z,11.30
2019-05-15T21:27:43.204Z,11.30
2019-05-15T21:30:12.049Z,11.20
2019-05-15T21:32:41.156Z,11.20
2019-05-15T21:35:10.119Z,11.20
2019-05-15T21:37:39.348Z,11.20
2019-05-15T21:40:09.430Z,11.20
2019-05-15T21:42:41.409Z,11.20
2019-05-15T21:45:14.182Z,11.20
2019-05-15T21:47:41.838Z,11.20
2019-05-15T21:50:11.106Z,11.20
2019-05-15T21:52:40.154Z,11.20
2019-05-15T21:55:09.865Z,11.20
2019-05-15T21:57:42.185Z,11.20
2019-05-15T22:00:18.031Z,11.20
2019-05-15T22:02:49.324Z,11.20
2019-05-15T22:07:51.280Z,11.80
2019-05-15T22:10:20.064Z,11.10
2019-05-15T22:12:49.238Z,11.10
2019-05-15T22:15:19.237Z,11.10
2019-05-15T22:17:49.539Z,11.10
2019-05-15T22:20:19.347Z,11.10
2019-05-15T22:22:50.858Z,11.10
2019-05-15T22:25:19.816Z,11.10
2019-05-15T22:27:49.836Z,11.00
2019-05-15T22:30:19.564Z,11.00
2019-05-15T22:35:19.514Z,11.00
2019-05-15T22:37:49.191Z,10.90
2019-05-15T22:40:18.924Z,10.90
2019-05-15T22:42:48.786Z,10.90
2019-05-15T22:45:18.566Z,10.90
2019-05-15T22:47:48.491Z,10.80
2019-05-15T22:50:18.806Z,10.80
2019-05-15T22:52:49.280Z,10.80
2019-05-15T22:55:19.290Z,10.80
2019-05-15T22:57:48.397Z,10.80
2019-05-15T23:00:18.971Z,10.70
2019-05-15T23:02:48.986Z,10.70
2019-05-15T23:05:27.999Z,10.70
2019-05-15T23:07:49.222Z,10.70
2019-05-15T23:10:18.363Z,10.70
2019-05-15T23:12:48.675Z,10.70
2019-05-15T23:15:18.980Z,10.70
2019-05-15T23:17:48.842Z,10.60
2019-05-15T23:20:18.428Z,10.60
2019-05-15T23:22:47.661Z,10.60
2019-05-15T23:25:18.230Z,10.60
2019-05-15T23:27:48.427Z,10.60
2019-05-15T23:30:18.582Z,10.60
2019-05-15T23:32:48.772Z,10.60
2019-05-15T23:35:18.429Z,10.60
2019-05-15T23:37:48.556Z,10.60
2019-05-15T23:40:18.112Z,10.50
2019-05-15T23:42:49.062Z,10.50
2019-05-15T23:45:18.359Z,10.50
2019-05-15T23:47:48.655Z,10.30
2019-05-15T23:50:17.939Z,10.40
2019-05-15T23:52:48.730Z,10.40
2019-05-15T23:55:18.933Z,10.40
2019-05-15T23:57:48.596Z,10.40
